Time;durP1;ratioP1;P1;durP2;ratioP2;P2;SDS_P1;SDS_P2;PMS_P1;PMS_P2;Temp;Humidity;BMP_temperature;BMP_pressure;BME280_temperature;BME280_humidity;BME280_pressure;Samples;Min_cycle;Max_cycle;Signal;HPM_P1;HPM_P2
2021/01/01 00:01:29;;;;;;;97.40;43.40;;;;;;;-0.89;78.11;99526.70;2194781;80;33558;-65
2021/01/01 00:04:31;;;;;;;78.47;35.73;;;;;;;-0.89;77.98;99535.02;2194805;81;28848;-65
2021/01/01 00:07:34;;;;;;;93.85;40.92;;;;;;;-0.89;78.05;99535.90;2195271;81;28112;-65
2021/01/01 00:10:37;;;;;;;98.62;42.53;;;;;;;-0.92;77.94;99532.00;2195043;81;29015;-66
2021/01/01 00:13:39;;;;;;;71.95;30.95;;;;;;;-0.90;78.06;99531.53;2195058;81;32162;-64
2021/01/01 00:16:44;;;;;;;90.35;40.03;;;;;;;-0.90;78.13;99538.10;2194985;81;33555;-65
2021/01/01 00:19:47;;;;;;;108.20;43.73;;;;;;;-0.92;78.01;99543.83;2195346;81;28870;-64
2021/01/01 00:22:49;;;;;;;80.90;38.55;;;;;;;-0.93;78.11;99542.97;2195257;81;27659;-65
2021/01/01 00:25:52;;;;;;;114.22;49.75;;;;;;;-0.91;78.15;99549.51;2195099;81;28865;-65
2021/01/01 00:28:55;;;;;;;102.95;42.58;;;;;;;-0.88;78.23;99551.22;2168844;80;31267;-65
2021/01/01 00:31:58;;;;;;;90.90;40.65;;;;;;;-0.82;78.23;99550.67;2217209;80;33050;-65
2021/01/01 00:35:02;;;;;;;98.07;44.15;;;;;;;-0.79;78.06;99551.09;2217172;80;28933;-64
2021/01/01 00:38:04;;;;;;;106.40;46.98;;;;;;;-0.74;78.19;99552.33;2217334;80;27718;-65
2021/01/01 00:41:07;;;;;;;111.77;50.00;;;;;;;-0.68;78.15;99555.73;2217226;80;28897;-65
2021/01/01 00:44:11;;;;;;;107.27;45.05;;;;;;;-0.64;78.19;99550.85;2217275;80;31124;-65
2021/01/01 00:47:13;;;;;;;93.90;42.50;;;;;;;-0.60;78.08;99554.75;2217169;80;33111;-66
2021/01/01 00:50:17;;;;;;;100.95;43.30;;;;;;;-0.64;77.96;99548.65;2217246;80;29758;-65
2021/01/01 00:53:19;;;;;;;105.75;44.35;;;;;;;-0.67;77.93;99553.52;2217338;80;27669;-65
2021/01/01 00:56:23;;;;;;;95.07;40.40;;;;;;;-0.70;77.94;99552.25;2217306;80;29330;-65
2021/01/01 00:59:27;;;;;;;96.82;41.90;;;;;;;-0.73;77.94;99552.75;2217314;80;32044;-65
2021/01/01 01:02:30;;;;;;;89.75;40.23;;;;;;;-0.72;78.10;99554.49;2217451;80;32312;-65
2021/01/01 01:05:34;;;;;;;101.02;43.45;;;;;;;-0.71;78.18;99554.45;2217238;80;30129;-65
2021/01/01 01:08:36;;;;;;;101.58;44.40;;;;;;;-0.71;78.16;99551.83;2217244;80;27729;-66
2021/01/01 01:11:39;;;;;;;100.58;42.83;;;;;;;-0.67;78.25;99547.41;2217239;80;29272;-63
2021/01/01 01:14:42;;;;;;;98.20;40.78;;;;;;;-0.68;78.13;99553.56;2217149;80;31197;-64
2021/01/01 01:17:45;;;;;;;100.95;41.13;;;;;;;-0.69;78.12;99549.19;2217129;80;33104;-65
2021/01/01 01:20:48;;;;;;;81.70;37.05;;;;;;;-0.71;78.23;99549.66;2217184;80;28812;-64
2021/01/01 01:23:52;;;;;;;89.22;38.70;;;;;;;-0.76;78.21;99549.73;2217324;80;27664;-64
2021/01/01 01:26:54;;;;;;;90.83;36.75;;;;;;;-0.79;78.18;99552.41;2217295;80;29691;-65
2021/01/01 01:29:58;;;;;;;92.78;40.08;;;;;;;-0.82;78.34;99548.50;2217315;80;31149;-65
2021/01/01 01:33:01;;;;;;;98.90;41.58;;;;;;;-0.83;78.33;99547.65;2217387;80;33966;-65
2021/01/01 01:36:04;;;;;;;93.35;39.05;;;;;;;-0.84;78.41;99554.23;2217356;80;29151;-65
2021/01/01 01:39:28;;;;;;;98.07;41.15;;;;;;;-0.81;78.48;99556.36;2217290;80;27764;-65
2021/01/01 01:42:33;;;;;;;94.95;41.55;;;;;;;-0.80;78.49;99554.61;2160433;82;29586;-65
2021/01/01 01:45:35;;;;;;;95.20;43.23;;;;;;;-0.78;78.54;99556.78;2160659;82;31215;-66
2021/01/01 01:48:38;;;;;;;96.97;39.15;;;;;;;-0.72;78.61;99553.17;2160427;82;34031;-65
2021/01/01 01:51:46;;;;;;;90.50;40.75;;;;;;;-0.73;78.47;99550.13;2136088;82;29131;-65
2021/01/01 01:54:49;;;;;;;89.50;39.55;;;;;;;-0.73;78.45;99552.75;2160606;82;27729;-65
2021/01/01 01:57:53;;;;;;;91.67;40.50;;;;;;;-0.72;78.53;99554.03;2160606;82;29973;-65
2021/01/01 02:00:57;;;;;;;104.97;41.97;;;;;;;-0.71;78.53;99547.02;2160788;82;31342;-65
2021/01/01 02:04:07;;;;;;;87.30;39.05;;;;;;;-0.73;78.46;99551.44;2160284;82;33111;-66
2021/01/01 02:07:10;;;;;;;92.78;37.50;;;;;;;-0.75;78.47;99554.53;2160226;82;29167;-66
2021/01/01 02:10:13;;;;;;;84.80;34.43;;;;;;;-0.77;78.45;99548.00;2160602;82;27692;-65
2021/01/01 02:13:16;;;;;;;90.45;37.33;;;;;;;-0.81;78.62;99551.09;2160293;82;28932;-66
2021/01/01 02:16:34;;;;;;;96.55;41.83;;;;;;;-0.84;78.57;99545.91;2159746;82;27686;-66
2021/01/01 02:19:46;;;;;;;83.87;38.10;;;;;;;-0.77;78.80;99542.73;2343211;76;36757;-65
2021/01/01 02:22:50;;;;;;;93.95;38.75;;;;;;;-0.85;78.63;99542.86;2303779;77;27711;-66
2021/01/01 02:25:53;;;;;;;90.83;37.25;;;;;;;-0.85;78.78;99546.80;2303478;77;29234;-65
2021/01/01 02:28:55;;;;;;;81.82;34.95;;;;;;;-0.86;78.82;99539.80;2303533;77;31120;-66
2021/01/01 02:32:00;;;;;;;90.80;39.48;;;;;;;-0.87;78.94;99536.75;2303494;77;33125;-65
2021/01/01 02:35:05;;;;;;;93.30;37.58;;;;;;;-0.82;79.01;99540.16;2303846;77;29495;-65
2021/01/01 02:38:07;;;;;;;82.50;35.40;;;;;;;-0.80;78.87;99540.15;2303815;77;27670;-65
2021/01/01 02:41:09;;;;;;;85.67;34.67;;;;;;;-0.80;78.77;99538.83;2273168;77;29735;-65
2021/01/01 02:44:12;;;;;;;82.47;34.78;;;;;;;-0.85;78.72;99536.28;2303448;77;32495;-65
2021/01/01 02:47:16;;;;;;;85.57;34.75;;;;;;;-0.87;78.72;99530.60;2303387;77;33099;-65
2021/01/01 02:50:19;;;;;;;88.25;38.02;;;;;;;-0.90;78.70;99534.16;2303529;77;28914;-65
2021/01/01 02:53:21;;;;;;;85.38;38.05;;;;;;;-0.85;78.79;99532.77;2303399;77;27675;-65
2021/01/01 02:56:24;;;;;;;96.10;39.78;;;;;;;-0.82;78.79;99528.78;2303448;77;29250;-65
2021/01/01 02:59:27;;;;;;;96.67;41.30;;;;;;;-0.80;78.76;99527.85;2303229;77;31133;-64
2021/01/01 03:02:29;;;;;;;95.25;40.85;;;;;;;-0.75;78.81;99531.75;2303289;77;33135;-65
2021/01/01 03:05:32;;;;;;;89.83;38.15;;;;;;;-0.71;78.79;99532.10;2303284;77;28889;-66
2021/01/01 03:08:35;;;;;;;93.42;38.60;;;;;;;-0.67;78.70;99532.94;2303472;77;27632;-66
2021/01/01 03:11:39;;;;;;;101.55;39.65;;;;;;;-0.66;78.56;99528.96;2303416;77;29661;-66
2021/01/01 03:14:41;;;;;;;92.30;39.88;;;;;;;-0.65;78.57;99525.44;2303317;77;31132;-63
2021/01/01 03:17:44;;;;;;;89.47;39.92;;;;;;;-0.64;78.52;99519.28;2303089;75;33091;-66
2021/01/01 03:20:48;;;;;;;98.67;39.00;;;;;;;-0.63;78.43;99522.34;2303893;77;29790;-65
2021/01/01 03:23:56;;;;;;;93.82;39.63;;;;;;;-0.62;78.52;99529.77;2304132;77;28228;-68
2021/01/01 03:27:10;;;;;;;87.30;38.25;;;;;;;-0.60;78.44;99521.87;2304008;77;29549;-66
2021/01/01 03:33:38;;;;;;;104.17;41.50;;;;;;;-0.58;78.35;99515.68;2188237;79;37297;-69
2021/01/01 03:36:41;;;;;;;105.00;43.23;;;;;;;-0.65;78.32;99513.59;2152353;82;27768;-66
2021/01/01 03:39:51;;;;;;;103.17;42.78;;;;;;;-0.63;78.45;99515.77;2152375;82;29776;-66
2021/01/01 03:42:55;;;;;;;100.02;41.60;;;;;;;-0.58;78.48;99517.45;2113746;84;31620;-66
2021/01/01 03:45:57;;;;;;;114.20;44.67;;;;;;;-0.58;78.29;99517.45;2152590;81;37292;-65
2021/01/01 03:49:00;;;;;;;100.65;39.78;;;;;;;-0.64;78.37;99507.45;2152431;81;28684;-66
2021/01/01 03:52:03;;;;;;;108.25;43.15;;;;;;;-0.62;78.40;99514.88;2152362;82;27628;-66
2021/01/01 03:55:07;;;;;;;117.37;47.30;;;;;;;-0.62;78.35;99514.88;2131513;82;28824;-65
2021/01/01 03:58:10;;;;;;;107.35;43.85;;;;;;;-0.65;78.35;99509.66;2152534;82;32158;-66
2021/01/01 04:01:17;;;;;;;122.47;48.80;;;;;;;-0.67;78.43;99519.33;2152396;82;33092;-66
2021/01/01 04:04:20;;;;;;;123.70;48.45;;;;;;;-0.68;78.44;99514.96;2152498;82;28862;-64
2021/01/01 04:07:23;;;;;;;122.20;50.35;;;;;;;-0.67;78.48;99511.44;2152459;82;27716;-66
2021/01/01 04:10:25;;;;;;;113.60;45.43;;;;;;;-0.66;78.45;99520.22;2152406;82;28764;-66
2021/01/01 04:13:27;;;;;;;120.53;46.00;;;;;;;-0.69;78.38;99518.95;2152306;82;31052;-66
2021/01/01 04:16:31;;;;;;;112.88;45.38;;;;;;;-0.72;78.34;99509.78;2152341;82;34099;-66
2021/01/01 04:19:33;;;;;;;111.72;39.70;;;;;;;-0.75;78.44;99519.92;2152406;82;28866;-66
2021/01/01 04:22:35;;;;;;;118.42;47.73;;;;;;;-0.75;78.52;99526.49;2152529;82;27630;-65
2021/01/01 04:25:38;;;;;;;125.15;47.13;;;;;;;-0.74;78.62;99519.45;2152422;82;28827;-65
2021/01/01 04:28:40;;;;;;;113.72;46.80;;;;;;;-0.71;78.57;99520.27;2152557;82;30783;-65
2021/01/01 04:31:43;;;;;;;112.17;43.73;;;;;;;-0.71;78.56;99518.95;2149542;82;33549;-65
2021/01/01 04:34:45;;;;;;;109.60;44.75;;;;;;;-0.64;78.70;99517.08;2142743;83;28866;-66
2021/01/01 04:37:48;;;;;;;124.47;47.98;;;;;;;-0.63;78.65;99517.51;2142980;81;27562;-65
2021/01/01 04:40:52;;;;;;;100.40;42.48;;;;;;;-0.54;78.74;99516.48;2142829;83;28820;-66
2021/01/01 04:43:55;;;;;;;109.85;44.80;;;;;;;-0.50;78.47;99511.17;2142269;83;31143;-65
2021/01/01 04:47:01;;;;;;;114.35;44.63;;;;;;;-0.48;78.31;99513.77;2142016;83;33565;-65
2021/01/01 04:50:05;;;;;;;105.52;44.08;;;;;;;-0.50;78.22;99514.23;2142115;83;28936;-65
2021/01/01 04:53:09;;;;;;;100.20;39.00;;;;;;;-0.55;78.15;99509.05;2142289;83;27642;-65
2021/01/01 04:56:12;;;;;;;92.70;37.42;;;;;;;-0.56;78.17;99512.58;2142197;83;29765;-65
2021/01/01 04:59:16;;;;;;;98.15;38.58;;;;;;;-0.62;78.11;99504.78;2142075;83;31156;-65
2021/01/01 05:02:18;;;;;;;98.05;37.63;;;;;;;-0.67;78.11;99504.86;2142060;83;34047;-65
2021/01/01 05:05:28;;;;;;;108.22;41.45;;;;;;;-0.73;78.20;99510.67;2119596;83;28177;-65
2021/01/01 05:08:31;;;;;;;96.60;40.58;;;;;;;-0.78;78.30;99514.70;2142304;82;27611;-65
2021/01/01 05:11:34;;;;;;;99.97;41.48;;;;;;;-0.78;78.43;99520.81;2142217;81;28979;-65
2021/01/01 05:14:38;;;;;;;101.82;39.53;;;;;;;-0.72;78.52;99517.67;2142067;83;31666;-66
2021/01/01 05:17:40;;;;;;;96.50;37.10;;;;;;;-0.69;78.41;99511.91;2141887;83;33016;-67
2021/01/01 05:20:44;;;;;;;81.15;32.93;;;;;;;-0.73;78.29;99514.63;2141899;83;30258;-68
2021/01/01 05:23:49;;;;;;;100.75;37.23;;;;;;;-0.80;78.33;99517.33;2142132;83;27728;-65
2021/01/01 05:26:52;;;;;;;90.10;36.42;;;;;;;-0.83;78.41;99524.41;2142038;81;28816;-66
2021/01/01 05:29:57;;;;;;;106.10;39.63;;;;;;;-0.91;78.57;99525.84;2142045;83;31158;-65
2021/01/01 05:33:00;;;;;;;91.30;34.83;;;;;;;-0.98;78.46;99527.70;2142195;82;33241;-65
2021/01/01 05:36:09;;;;;;;90.32;35.88;;;;;;;-1.01;78.58;99532.14;2141990;83;28932;-66
2021/01/01 05:39:20;;;;;;;97.72;36.77;;;;;;;-1.04;78.54;99536.13;2142169;83;27677;-64
2021/01/01 05:42:22;;;;;;;87.90;35.15;;;;;;;-1.04;78.66;99539.61;2142020;82;30216;-64
2021/01/01 05:45:27;;;;;;;87.65;36.65;;;;;;;-1.04;78.75;99538.30;2142094;83;32507;-65
2021/01/01 05:48:29;;;;;;;;;;;;;;;-1.02;78.75;99536.52;2144367;83;33961;-63
2021/01/01 05:51:32;;;;;;;81.65;31.17;;;;;;;-0.99;78.79;99533.85;2142022;83;28855;-65
2021/01/01 05:54:36;;;;;;;83.27;32.55;;;;;;;-0.99;78.78;99531.22;2142098;83;27663;-65
2021/01/01 05:57:40;;;;;;;87.50;36.40;;;;;;;-1.02;78.77;99540.46;2142439;83;29826;-64
2021/01/01 06:00:43;;;;;;;;;;;;;;;-1.01;78.78;99540.03;2144579;82;30319;-63
2021/01/01 06:03:45;;;;;;;94.65;36.80;;;;;;;-0.98;78.92;99543.91;2141928;83;33690;-64
2021/01/01 06:06:50;;;;;;;90.47;36.80;;;;;;;-0.93;78.95;99535.52;2141903;83;28862;-65
2021/01/01 06:09:53;;;;;;;93.97;36.17;;;;;;;-0.89;78.90;99534.58;2142183;83;27661;-64
2021/01/01 06:12:57;;;;;;;89.55;35.68;;;;;;;-0.86;78.98;99534.55;2141932;83;30008;-65
2021/01/01 06:16:02;;;;;;;77.75;30.55;;;;;;;-0.84;78.87;99534.08;2141850;83;31178;-66
2021/01/01 06:19:10;;;;;;;85.20;33.90;;;;;;;-0.82;78.83;99544.56;2141975;83;34020;-65
2021/01/01 06:22:29;;;;;;;62.88;23.77;;;;;;;-0.85;78.79;99544.59;2142014;83;28950;-65
2021/01/01 06:25:35;;;;;;;69.30;28.15;;;;;;;-0.91;78.93;99541.63;2142173;83;27958;-64
2021/01/01 06:28:45;;;;;;;60.43;25.50;;;;;;;-0.97;78.97;99547.84;2141921;83;28814;-65
2021/01/01 06:31:48;;;;;;;82.95;31.82;;;;;;;-1.00;79.33;99543.09;2119545;82;31221;-64
2021/01/01 06:34:53;;;;;;;68.67;28.10;;;;;;;-1.05;79.22;99545.75;2141996;83;33080;-65
2021/01/01 06:37:56;;;;;;;74.90;31.27;;;;;;;-1.04;79.41;99552.75;2142269;83;28870;-64
2021/01/01 06:40:59;;;;;;;57.40;22.58;;;;;;;-1.03;79.35;99548.38;2142105;81;27712;-64
2021/01/01 06:44:01;;;;;;;77.30;31.55;;;;;;;-1.00;79.71;99550.97;2141994;81;29329;-65
2021/01/01 06:47:07;;;;;;;63.65;26.30;;;;;;;-1.00;79.45;99546.57;2141934;83;32523;-65
2021/01/01 06:50:26;;;;;;;73.60;28.80;;;;;;;-0.98;79.64;99544.80;2142028;83;33945;-65
2021/01/01 06:53:39;;;;;;;79.00;30.10;;;;;;;-0.91;79.55;99544.25;2343208;76;27677;-64
2021/01/01 06:56:45;;;;;;;82.20;33.60;;;;;;;-0.91;79.52;99550.83;2303665;77;27564;-64
2021/01/01 06:59:47;;;;;;;81.20;31.60;;;;;;;-0.84;79.63;99542.39;2303730;77;28954;-64
2021/01/01 07:02:50;;;;;;;73.75;27.25;;;;;;;-0.80;79.56;99548.03;2303569;77;32100;-65
2021/01/01 07:05:54;;;;;;;71.47;28.12;;;;;;;-0.73;79.62;99548.34;2303530;77;33607;-64
2021/01/01 07:08:57;;;;;;;76.07;27.90;;;;;;;-0.72;79.37;99551.86;2303363;77;29641;-65
2021/01/01 07:12:01;;;;;;;70.05;29.00;;;;;;;-0.68;79.40;99546.98;2303378;77;27660;-65
2021/01/01 07:15:04;;;;;;;45.10;19.03;;;;;;;-0.67;79.37;99556.62;2267348;77;28837;-65
2021/01/01 07:18:07;;;;;;;68.62;26.25;;;;;;;-0.67;79.29;99547.41;2272447;77;31113;-65
2021/01/01 07:21:16;;;;;;;69.20;27.93;;;;;;;-0.70;79.36;99546.14;2303330;77;34012;-66
2021/01/01 07:24:19;;;;;;;74.53;28.40;;;;;;;-0.72;79.38;99551.40;2303387;77;28845;-64
2021/01/01 07:27:21;;;;;;;61.70;24.98;;;;;;;-0.70;79.45;99559.28;2303391;77;27693;-64
2021/01/01 07:30:26;;;;;;;72.32;28.77;;;;;;;-0.68;79.50;99554.88;2303529;77;29328;-65
2021/01/01 07:33:31;;;;;;;74.47;30.97;;;;;;;-0.68;79.39;99560.14;2272802;77;33495;-65
2021/01/01 07:36:34;;;;;;;78.12;29.63;;;;;;;-0.65;79.55;99557.43;2303475;77;33082;-64
2021/01/01 07:39:36;;;;;;;71.72;28.00;;;;;;;-0.56;79.59;99558.62;2303475;77;28856;-64
2021/01/01 07:42:52;;;;;;;73.92;29.77;;;;;;;-0.54;79.50;99554.20;2303400;77;27757;-65
2021/01/01 07:46:03;;;;;;;74.53;30.10;;;;;;;-0.52;79.49;99551.11;2303643;77;28798;-65
2021/01/01 07:49:05;;;;;;;76.60;29.52;;;;;;;-0.51;79.51;99558.11;2303533;77;31130;-64
2021/01/01 07:52:08;;;;;;;73.78;29.67;;;;;;;-0.44;79.49;99563.25;2305007;77;33294;-64
2021/01/01 07:55:12;;;;;;;65.80;26.57;;;;;;;-0.36;79.53;99553.48;2307635;77;28859;-66
2021/01/01 07:58:16;;;;;;;53.38;19.82;;;;;;;-0.32;79.48;99556.02;2281983;77;37209;-66
2021/01/01 08:01:19;;;;;;;62.78;24.32;;;;;;;-0.22;79.36;99563.75;2307594;77;28772;-65
2021/01/01 08:04:22;;;;;;;56.85;23.83;;;;;;;-0.17;79.21;99564.55;2307069;77;32510;-65
2021/01/01 08:07:24;;;;;;;74.03;28.50;;;;;;;-0.13;79.14;99566.66;2280989;77;33098;-65
2021/01/01 08:10:34;;;;;;;62.20;26.57;;;;;;;-0.10;79.08;99581.98;2306877;77;29272;-65
2021/01/01 08:13:36;;;;;;;67.70;27.17;;;;;;;-0.05;79.04;99580.58;2307036;77;27580;-66
2021/01/01 08:16:39;;;;;;;58.00;25.17;;;;;;;0.00;79.03;99572.16;2306955;77;28805;-65
2021/01/01 08:19:41;;;;;;;62.05;26.27;;;;;;;0.03;78.75;99576.48;2306936;77;31630;-65
2021/01/01 08:22:47;;;;;;;62.05;27.73;;;;;;;-0.01;78.71;99567.78;2306799;77;33205;-66
2021/01/01 08:25:51;;;;;;;68.30;27.13;;;;;;;-0.03;78.70;99573.06;2306885;77;29819;-64
2021/01/01 08:28:54;;;;;;;72.90;31.27;;;;;;;-0.02;78.64;99567.36;2307074;77;28032;-65
2021/01/01 08:32:01;;;;;;;69.00;27.95;;;;;;;-0.01;78.69;99578.31;2306840;77;28862;-65
2021/01/01 08:35:04;;;;;;;62.20;27.55;;;;;;;0.05;78.72;99577.34;2306777;77;31122;-65
2021/01/01 08:38:18;;;;;;;60.98;25.70;;;;;;;0.06;78.69;99573.81;2306862;77;33115;-64
2021/01/01 08:41:21;;;;;;;66.15;26.05;;;;;;;0.08;78.62;99576.82;2306478;77;29727;-64
2021/01/01 08:44:24;;;;;;;76.22;29.05;;;;;;;0.12;78.62;99578.94;2306901;77;27641;-65
2021/01/01 08:47:43;;;;;;;71.90;29.95;;;;;;;0.13;78.61;99577.61;2306962;77;28810;-65
2021/01/01 08:50:48;;;;;;;71.67;28.95;;;;;;;0.18;78.64;99585.85;2306764;77;31173;-64
2021/01/01 08:53:50;;;;;;;75.08;33.05;;;;;;;0.25;78.64;99590.13;2303001;77;34112;-64
2021/01/01 08:57:00;;;;;;;67.50;30.68;;;;;;;0.37;78.79;99596.47;2302373;77;28871;-64
2021/01/01 09:00:06;;;;;;;73.87;31.15;;;;;;;0.44;78.56;99590.20;2302494;77;27842;-65
2021/01/01 09:03:08;;;;;;;67.85;30.90;;;;;;;0.51;78.44;99591.37;2302678;77;29700;-65
2021/01/01 09:06:18;;;;;;;63.73;27.95;;;;;;;0.54;78.22;99592.20;2302309;77;31131;-65
2021/01/01 09:09:34;;;;;;;69.00;31.23;;;;;;;0.53;78.13;99598.80;2302366;77;34070;-65
2021/01/01 09:12:37;;;;;;;79.20;33.75;;;;;;;0.53;78.09;99601.00;2302649;77;28887;-65
2021/01/01 09:15:40;;;;;;;73.12;32.33;;;;;;;0.54;78.24;99605.37;2302733;77;27704;-65
2021/01/01 09:18:43;;;;;;;68.37;31.55;;;;;;;0.66;78.43;99599.00;2302789;77;28822;-66
2021/01/01 09:21:45;;;;;;;74.42;32.25;;;;;;;0.71;78.07;99598.89;2302757;77;32061;-64
2021/01/01 09:24:48;;;;;;;74.07;31.93;;;;;;;0.74;77.94;99597.52;2302790;77;33109;-64
2021/01/01 09:27:52;;;;;;;68.15;31.02;;;;;;;0.75;77.88;99604.06;2302771;77;29852;-65
2021/01/01 09:30:54;;;;;;;61.53;29.23;;;;;;;0.72;77.76;99604.13;2303040;77;27516;-65
2021/01/01 09:34:02;;;;;;;71.67;31.65;;;;;;;0.78;77.88;99604.91;2302603;77;30250;-65
2021/01/01 09:37:10;;;;;;;73.47;30.97;;;;;;;0.77;77.69;99610.61;2302580;77;31503;-65
2021/01/01 09:40:14;;;;;;;70.62;32.50;;;;;;;0.78;77.84;99599.63;2302508;77;33947;-65
2021/01/01 09:43:17;;;;;;;44.65;19.90;;;;;;;0.83;77.74;99601.27;2302758;77;28877;-66
2021/01/01 09:46:20;;;;;;;63.45;26.87;;;;;;;0.84;77.50;99590.25;2302802;77;27691;-65
2021/01/01 09:49:23;;;;;;;74.25;32.05;;;;;;;0.87;77.43;99595.47;2302733;77;28913;-64
2021/01/01 09:52:26;;;;;;;71.05;33.40;;;;;;;0.90;77.47;99602.00;2302586;77;31122;-65
2021/01/01 09:55:28;;;;;;;68.45;32.15;;;;;;;0.97;77.74;99602.73;2302730;77;34109;-65
2021/01/01 09:58:31;;;;;;;66.37;31.42;;;;;;;1.08;77.72;99601.19;2302749;77;28966;-66
2021/01/01 10:01:34;;;;;;;64.05;28.60;;;;;;;1.16;77.38;99607.18;2302752;77;27649;-65
2021/01/01 10:04:36;;;;;;;63.15;30.32;;;;;;;1.13;76.96;99606.78;2302789;77;28851;-64
2021/01/01 10:07:39;;;;;;;62.08;27.40;;;;;;;1.11;77.09;99611.21;2302686;77;31250;-63
2021/01/01 10:10:47;;;;;;;62.55;28.42;;;;;;;1.09;76.77;99610.38;2302678;77;34036;-64
2021/01/01 10:13:50;;;;;;;61.95;28.42;;;;;;;1.11;76.93;99612.53;2302736;77;29762;-64
2021/01/01 10:16:53;;;;;;;61.98;28.85;;;;;;;1.13;76.83;99614.69;2302671;77;27629;-64
2021/01/01 10:19:57;;;;;;;53.15;26.50;;;;;;;1.13;76.70;99606.78;2271135;77;28819;-64
2021/01/01 10:23:00;;;;;;;58.80;29.57;;;;;;;1.12;76.55;99600.23;2302700;77;32080;-65
2021/01/01 10:26:04;;;;;;;60.50;29.57;;;;;;;1.06;76.66;99593.33;2302661;77;34024;-65
2021/01/01 10:29:07;;;;;;;62.03;30.92;;;;;;;1.06;76.78;99598.60;2302728;77;28002;-64
2021/01/01 10:32:11;;;;;;;64.07;31.75;;;;;;;1.05;76.82;99593.76;2302715;77;27720;-63
2021/01/01 10:35:13;;;;;;;44.75;21.12;;;;;;;1.06;76.86;99586.73;2302861;77;28810;-64
2021/01/01 10:38:17;;;;;;;61.90;30.05;;;;;;;1.07;76.87;99591.11;2302589;77;32104;-65
2021/01/01 10:41:20;;;;;;;66.47;31.00;;;;;;;1.05;76.76;99588.48;2302476;77;33116;-64
2021/01/01 10:44:22;;;;;;;65.70;31.87;;;;;;;1.08;76.77;99590.64;2302679;77;29787;-65
2021/01/01 10:47:25;;;;;;;65.50;33.25;;;;;;;1.10;76.72;99593.65;2302586;77;27659;-64
2021/01/01 10:50:28;;;;;;;63.78;32.90;;;;;;;1.11;76.89;99596.70;2302647;77;28881;-65
2021/01/01 10:53:31;;;;;;;65.28;30.77;;;;;;;1.19;76.91;99600.48;2303059;75;31139;-64
2021/01/01 10:56:34;;;;;;;71.33;33.50;;;;;;;1.27;76.86;99597.24;2303263;77;35438;-64
2021/01/01 10:59:39;;;;;;;65.00;32.70;;;;;;;1.40;77.12;99591.23;2303282;77;29617;-65
2021/01/01 11:02:41;;;;;;;69.17;33.23;;;;;;;1.54;76.93;99595.31;2303795;77;27573;-64
2021/01/01 11:05:43;;;;;;;69.55;33.80;;;;;;;1.59;76.79;99597.37;2303380;77;29713;-65
2021/01/01 11:08:47;;;;;;;74.27;35.55;;;;;;;1.66;76.79;99591.91;2303480;77;31110;-65
2021/01/01 11:11:49;;;;;;;81.25;40.48;;;;;;;1.70;76.79;99582.59;2303252;77;33114;-64
2021/01/01 12:22:01;;;;;;;74.17;36.45;;;;;;;1.89;75.35;99549.53;2303525;77;29209;-64
2021/01/01 12:24:57;;;;;;;70.87;33.02;;;;;;;1.83;75.54;99545.72;2301868;77;27551;-64
2021/01/01 12:28:03;;;;;;;77.67;36.10;;;;;;;1.82;75.49;99555.90;2303577;77;29737;-64
2021/01/01 12:31:07;;;;;;;76.15;37.45;;;;;;;1.76;75.51;99549.44;2303623;77;31125;-64
2021/01/01 12:34:10;;;;;;;78.90;36.05;;;;;;;1.70;75.56;99546.95;2303522;77;33209;-64
2021/01/01 12:37:13;;;;;;;87.00;41.08;;;;;;;1.63;75.49;99546.23;2303621;77;30082;-64
2021/01/01 12:40:17;;;;;;;79.53;36.15;;;;;;;1.57;75.59;99547.73;2303554;77;27680;-65
2021/01/01 12:43:21;;;;;;;77.00;35.85;;;;;;;1.48;75.44;99554.11;2303637;77;29772;-64
2021/01/01 12:46:24;;;;;;;80.28;37.50;;;;;;;1.35;75.53;99555.69;2303446;77;31317;-65
2021/01/01 12:49:31;;;;;;;75.47;38.95;;;;;;;1.29;75.72;99557.62;2303522;77;33971;-65
2021/01/01 12:52:35;;;;;;;84.30;37.88;;;;;;;1.27;75.88;99562.94;2303542;77;30199;-65
2021/01/01 12:55:39;;;;;;;84.47;37.85;;;;;;;1.28;75.85;99566.44;2261677;78;37342;-65
2021/01/01 12:58:43;;;;;;;89.52;39.30;;;;;;;1.27;75.88;99569.54;2261569;78;28881;-65
2021/01/01 13:01:46;;;;;;;75.05;36.50;;;;;;;1.33;76.27;99561.92;2261451;78;31362;-66
2021/01/01 13:04:49;;;;;;;81.75;37.30;;;;;;;1.43;76.13;99565.22;2261366;78;33086;-66
2021/01/01 13:07:52;;;;;;;81.82;38.70;;;;;;;1.43;75.96;99566.06;2261402;78;30076;-65
2021/01/01 13:10:55;;;;;;;79.95;39.03;;;;;;;1.44;75.97;99564.31;2261641;78;27632;-66
2021/01/01 13:13:57;;;;;;;79.82;36.03;;;;;;;1.47;75.96;99561.60;2261410;78;28816;-65
2021/01/01 13:16:59;;;;;;;81.12;37.60;;;;;;;1.45;75.87;99572.64;2261524;78;31165;-64
2021/01/01 13:20:04;;;;;;;74.53;35.88;;;;;;;1.44;75.98;99567.80;2261382;78;32920;-66
2021/01/01 13:23:07;;;;;;;80.35;38.70;;;;;;;1.44;75.86;99584.11;2261699;78;29155;-65
2021/01/01 13:26:09;;;;;;;78.42;37.65;;;;;;;1.40;75.82;99586.39;2261600;78;27621;-65
2021/01/01 13:29:12;;;;;;;85.85;40.40;;;;;;;1.37;75.92;99588.66;2261414;78;29726;-65
2021/01/01 13:32:15;;;;;;;85.45;38.13;;;;;;;1.36;75.94;99597.48;2261375;78;32080;-65
2021/01/01 13:35:19;;;;;;;84.03;37.58;;;;;;;1.36;76.03;99610.67;2261346;78;33982;-64
2021/01/01 13:38:21;;;;;;;90.67;38.85;;;;;;;1.40;76.17;99607.51;2261417;78;29912;-66
2021/01/01 13:41:24;;;;;;;87.40;40.55;;;;;;;1.40;75.91;99606.19;2261506;78;27647;-64
2021/01/01 13:44:27;;;;;;;84.47;41.28;;;;;;;1.43;76.07;99610.08;2261424;78;28894;-63
2021/01/01 13:47:31;;;;;;;84.65;38.78;;;;;;;1.47;76.12;99613.07;2261484;78;31851;-65
2021/01/01 13:50:36;;;;;;;88.70;42.03;;;;;;;1.50;76.07;99612.97;2261372;78;33061;-63
2021/01/01 13:53:38;;;;;;;65.10;31.53;;;;;;;1.53;76.14;99604.14;2271670;77;30097;-63
2021/01/01 13:56:45;;;;;;;88.07;40.08;;;;;;;1.54;76.01;99607.19;2306932;77;27685;-65
2021/01/01 13:59:48;;;;;;;86.45;44.90;;;;;;;1.50;75.92;99610.33;2306792;77;28921;-65
2021/01/01 14:02:51;;;;;;;92.90;44.88;;;;;;;1.50;76.15;99616.50;2306844;77;31128;-63
2021/01/01 14:05:55;;;;;;;102.40;46.77;;;;;;;1.55;76.22;99619.48;2306702;77;33145;-65
2021/01/01 14:08:59;;;;;;;114.30;55.10;;;;;;;1.58;76.12;99618.07;2306794;77;30092;-64
2021/01/01 14:12:01;;;;;;;94.90;41.68;;;;;;;1.56;76.09;99619.44;2307178;77;27679;-66
2021/01/01 14:15:11;;;;;;;91.90;39.70;;;;;;;1.56;76.00;99626.04;2306717;77;28775;-65
2021/01/01 14:18:17;;;;;;;93.60;43.42;;;;;;;1.59;76.08;99629.94;2306830;77;31118;-64
2021/01/01 14:21:30;;;;;;;95.22;44.30;;;;;;;1.66;76.23;99631.50;2306709;77;34011;-65
2021/01/01 14:24:32;;;;;;;101.58;45.50;;;;;;;1.72;76.10;99633.59;2306763;77;29153;-67
2021/01/01 14:27:36;;;;;;;98.05;44.45;;;;;;;1.73;76.02;99635.33;2306767;77;27627;-66
2021/01/01 14:30:39;;;;;;;94.60;43.38;;;;;;;1.67;75.82;99637.20;2306744;77;29368;-65
2021/01/01 14:33:42;;;;;;;94.25;42.08;;;;;;;1.64;75.89;99638.62;2306595;77;31112;-66
2021/01/01 14:36:45;;;;;;;99.25;46.50;;;;;;;1.61;75.89;99645.72;2306798;77;32969;-65
2021/01/01 14:39:47;;;;;;;89.42;41.70;;;;;;;1.59;76.00;99643.13;2306716;77;29183;-66
2021/01/01 14:42:52;;;;;;;104.97;42.98;;;;;;;1.60;76.05;99649.27;2306746;77;27647;-66
2021/01/01 14:45:55;;;;;;;96.80;43.73;;;;;;;1.59;76.03;99651.48;2306737;77;29226;-67
2021/01/01 14:48:57;;;;;;;106.03;44.23;;;;;;;1.58;76.10;99650.63;2306672;77;31106;-65
2021/01/01 14:52:00;;;;;;;99.50;44.20;;;;;;;1.57;76.05;99654.17;2306782;77;33106;-65
2021/01/01 14:55:05;;;;;;;96.70;42.25;;;;;;;1.59;76.15;99665.58;2304334;77;30021;-66
2021/01/01 14:58:08;;;;;;;107.80;46.98;;;;;;;1.61;76.06;99658.92;2302838;77;27610;-67
2021/01/01 15:01:11;;;;;;;113.62;51.15;;;;;;;1.59;76.08;99652.80;2302740;77;28803;-66
2021/01/01 15:04:14;;;;;;;123.40;54.10;;;;;;;1.60;76.23;99651.47;2302602;77;31122;-66
2021/01/01 15:07:17;;;;;;;111.72;50.17;;;;;;;1.64;76.20;99654.46;2302538;77;33148;-66
2021/01/01 15:10:19;;;;;;;121.85;52.93;;;;;;;1.65;76.14;99653.56;2302520;77;29139;-65
2021/01/01 15:13:23;;;;;;;107.65;49.77;;;;;;;1.67;76.25;99663.61;2302649;77;28189;-66
2021/01/01 15:16:26;;;;;;;111.92;49.83;;;;;;;1.67;76.14;99657.47;2302864;77;28927;-64
2021/01/01 15:19:29;;;;;;;119.85;52.58;;;;;;;1.65;76.14;99656.20;2302713;77;31464;-64